createdAt,value
2023-03-29T00:02:14.341Z,141.17
2023-03-29T00:04:41.420Z,144.10
2023-03-29T00:07:08.867Z,137.97
2023-03-29T00:09:35.879Z,139.77
2023-03-29T00:12:03.570Z,141.17
2023-03-29T00:14:31.248Z,154.70
2023-03-29T00:16:59.190Z,178.33
2023-03-29T00:19:26.582Z,166.33
2023-03-29T00:21:53.528Z,147.03
2023-03-29T00:24:21.493Z,145.27
2023-03-29T00:26:48.844Z,137.93
2023-03-29T00:29:16.673Z,141.33
2023-03-29T00:31:53.626Z,138.23
2023-03-29T00:34:21.918Z,142.77
2023-03-29T00:36:50.924Z,144.93
2023-03-29T00:39:21.241Z,137.80
2023-03-29T00:41:50.219Z,134.70
2023-03-29T00:44:57.507Z,139.40
2023-03-29T00:47:41.665Z,144.90
2023-03-29T00:50:31.590Z,142.93
2023-03-29T00:53:33.828Z,139.37
2023-03-29T00:56:14.015Z,134.87
2023-03-29T00:58:57.213Z,139.07
2023-03-29T01:01:42.210Z,135.37
2023-03-29T01:04:19.364Z,141.77
2023-03-29T01:06:58.339Z,142.57
2023-03-29T01:09:29.847Z,140.63
2023-03-29T01:12:01.686Z,174.57
2023-03-29T01:14:42.070Z,159.47
2023-03-29T01:17:12.877Z,153.90
2023-03-29T01:19:50.606Z,139.63
2023-03-29T01:22:41.364Z,135.77
2023-03-29T01:25:26.638Z,134.97
2023-03-29T01:28:08.972Z,139.23
2023-03-29T01:31:08.540Z,134.93
2023-03-29T01:33:48.822Z,134.53
2023-03-29T01:36:27.112Z,137.57
2023-03-29T01:38:59.580Z,138.93
2023-03-29T01:42:21.713Z,139.87
2023-03-29T01:45:03.913Z,135.97
2023-03-29T01:48:12.909Z,138.43
2023-03-29T01:50:52.355Z,137.73
2023-03-29T01:53:52.604Z,133.83
2023-03-29T01:56:28.159Z,138.30
2023-03-29T01:59:07.715Z,131.53
2023-03-29T02:01:43.067Z,137.30
2023-03-29T02:04:13.760Z,136.10
2023-03-29T02:06:41.618Z,136.33
2023-03-29T02:09:09.182Z,135.37
2023-03-29T02:11:38.042Z,134.13
2023-03-29T02:14:05.522Z,135.67
2023-03-29T02:16:38.935Z,143.57
2023-03-29T02:19:07.868Z,142.93
2023-03-29T02:22:05.830Z,137.50
2023-03-29T02:24:36.506Z,137.57
2023-03-29T02:27:04.837Z,147.60
2023-03-29T02:29:31.904Z,142.17
2023-03-29T02:32:26.270Z,135.07
2023-03-29T02:35:16.772Z,135.10
2023-03-29T02:37:49.481Z,133.43
2023-03-29T02:40:17.773Z,137.90
2023-03-29T02:42:46.234Z,140.53
2023-03-29T02:45:15.978Z,133.33
2023-03-29T02:47:48.626Z,136.53
2023-03-29T02:50:16.002Z,140.77
2023-03-29T02:52:54.051Z,138.53
2023-03-29T02:55:25.150Z,136.27
2023-03-29T02:57:52.231Z,135.37
2023-03-29T03:00:20.144Z,150.83
2023-03-29T03:02:48.426Z,152.33
2023-03-29T03:05:15.904Z,136.20
2023-03-29T03:07:43.665Z,131.93
2023-03-29T03:10:11.127Z,133.13
2023-03-29T03:12:38.603Z,126.40
2023-03-29T03:15:06.842Z,134.10
2023-03-29T03:17:39.838Z,130.63
2023-03-29T03:20:13.082Z,142.10
2023-03-29T03:22:45.184Z,135.17
2023-03-29T03:25:12.153Z,136.13
2023-03-29T03:27:39.768Z,136.03
2023-03-29T03:30:07.833Z,137.97
2023-03-29T03:32:54.883Z,132.80
2023-03-29T03:35:40.502Z,134.93
2023-03-29T03:38:08.568Z,130.63
2023-03-29T03:40:35.513Z,132.97
2023-03-29T03:43:02.736Z,128.33
2023-03-29T03:45:30.075Z,130.67
2023-03-29T03:48:15.922Z,133.37
2023-03-29T03:51:06.215Z,131.30
2023-03-29T03:53:35.296Z,133.70
2023-03-29T03:56:14.272Z,136.07
2023-03-29T03:58:59.562Z,130.90
2023-03-29T04:01:28.276Z,139.20
2023-03-29T04:04:04.587Z,136.80
2023-03-29T04:06:32.609Z,139.73
2023-03-29T04:09:33.426Z,132.30
2023-03-29T04:12:39.641Z,133.60
2023-03-29T04:15:10.463Z,134.73
2023-03-29T04:17:39.949Z,131.37
2023-03-29T04:20:27.074Z,131.47
2023-03-29T04:22:55.662Z,137.97
2023-03-29T04:25:23.276Z,137.23
2023-03-29T04:27:56.629Z,140.20
2023-03-29T04:30:40.234Z,17.37
2023-03-29T04:33:13.679Z,146.87
2023-03-29T04:35:44.975Z,132.97
2023-03-29T04:38:16.794Z,154.33
2023-03-29T04:40:45.765Z,152.63
2023-03-29T04:43:25.219Z,149.97
2023-03-29T04:46:02.190Z,114.93
2023-03-29T04:48:47.999Z,135.07
2023-03-29T04:51:16.454Z,148.97
2023-03-29T04:53:44.338Z,139.90
2023-03-29T04:56:11.522Z,183.40
2023-03-29T04:58:56.940Z,161.07
2023-03-29T05:01:23.960Z,148.13
2023-03-29T05:03:57.325Z,143.40
2023-03-29T05:06:29.741Z,141.77
2023-03-29T05:08:56.901Z,137.70
2023-03-29T05:11:31.668Z,148.57
2023-03-29T05:14:03.106Z,141.03
2023-03-29T05:16:34.699Z,130.57
2023-03-29T05:19:01.944Z,137.03
2023-03-29T05:21:30.069Z,138.40
2023-03-29T05:24:00.903Z,137.47
2023-03-29T05:26:47.776Z,141.00
2023-03-29T05:29:15.303Z,131.60
2023-03-29T05:31:45.314Z,137.63
2023-03-29T05:34:12.283Z,130.87
2023-03-29T05:36:46.286Z,139.10
2023-03-29T05:39:15.152Z,135.47
2023-03-29T05:41:43.047Z,140.73
2023-03-29T05:44:27.347Z,135.87
2023-03-29T05:47:01.992Z,143.70
2023-03-29T05:49:29.061Z,142.67
2023-03-29T05:52:07.556Z,129.00
2023-03-29T05:54:35.824Z,150.20
2023-03-29T05:57:04.623Z,136.80
2023-03-29T05:59:32.416Z,133.13
2023-03-29T06:02:04.944Z,143.30
2023-03-29T06:04:34.368Z,145.30
2023-03-29T06:07:32.118Z,137.77
2023-03-29T06:10:25.291Z,138.30
2023-03-29T06:13:00.214Z,139.43
2023-03-29T06:15:28.203Z,143.20
2023-03-29T06:18:05.943Z,143.33
2023-03-29T06:20:34.446Z,135.63
2023-03-29T06:23:08.641Z,137.00
2023-03-29T06:25:35.617Z,139.70
2023-03-29T06:28:02.800Z,137.43
2023-03-29T06:30:30.237Z,148.73
2023-03-29T06:33:00.955Z,141.83
2023-03-29T06:35:51.015Z,132.93
2023-03-29T06:38:22.697Z,143.57
2023-03-29T06:41:24.686Z,143.63
2023-03-29T06:44:15.550Z,139.83
2023-03-29T06:46:55.822Z,140.97
2023-03-29T06:49:23.757Z,143.83
2023-03-29T06:52:04.072Z,134.93
2023-03-29T06:54:31.295Z,140.37
2023-03-29T06:57:04.649Z,142.83
2023-03-29T06:59:35.042Z,141.87
2023-03-29T07:02:31.786Z,139.23
2023-03-29T07:05:13.381Z,144.27
2023-03-29T07:08:22.659Z,141.17
2023-03-29T07:10:59.338Z,154.83
2023-03-29T07:13:46.206Z,173.70
2023-03-29T07:16:19.109Z,147.37
2023-03-29T07:19:09.416Z,148.03
2023-03-29T07:21:59.408Z,150.07
2023-03-29T07:24:37.793Z,152.93
2023-03-29T07:27:05.136Z,149.17
2023-03-29T07:29:33.577Z,152.67
2023-03-29T07:32:01.708Z,156.93
2023-03-29T07:34:43.973Z,174.30
2023-03-29T07:37:19.623Z,160.30
2023-03-29T07:39:47.432Z,162.30
2023-03-29T07:42:33.073Z,167.23
2023-03-29T07:45:00.212Z,181.13
2023-03-29T07:47:33.516Z,163.87
2023-03-29T07:50:02.215Z,225.50
2023-03-29T07:52:30.151Z,192.53
2023-03-29T07:54:58.055Z,216.17
2023-03-29T07:57:32.818Z,212.00
2023-03-29T08:00:00.593Z,210.67
2023-03-29T08:02:42.138Z,218.70
2023-03-29T08:05:12.663Z,213.03
2023-03-29T08:07:50.462Z,211.63
2023-03-29T08:10:29.662Z,161.27
2023-03-29T08:13:29.037Z,151.40
2023-03-29T08:16:28.089Z,155.33
2023-03-29T08:19:04.661Z,156.03
2023-03-29T08:21:50.518Z,169.23
2023-03-29T08:24:20.819Z,157.77
2023-03-29T08:26:52.553Z,153.37
2023-03-29T08:29:20.654Z,161.23
2023-03-29T08:31:47.759Z,164.57
2023-03-29T08:34:14.780Z,158.00
2023-03-29T08:36:59.383Z,159.67
2023-03-29T08:39:41.017Z,162.17
2023-03-29T08:42:44.961Z,155.43
2023-03-29T08:45:35.460Z,159.77
2023-03-29T08:48:31.587Z,159.93
2023-03-29T08:51:08.652Z,154.97
2023-03-29T08:53:50.718Z,160.67
2023-03-29T08:56:33.492Z,158.20
2023-03-29T08:59:06.559Z,159.90
2023-03-29T09:01:36.252Z,163.03
2023-03-29T09:04:38.988Z,159.27
2023-03-29T09:07:28.789Z,162.23
2023-03-29T09:09:57.104Z,158.93
2023-03-29T09:12:56.534Z,163.20
2023-03-29T09:15:31.275Z,165.77
2023-03-29T09:18:51.660Z,163.67
2023-03-29T09:21:41.468Z,156.40
2023-03-29T09:24:29.558Z,163.10
2023-03-29T09:27:14.422Z,160.70
2023-03-29T09:30:02.474Z,177.93
2023-03-29T09:33:27.004Z,163.27
2023-03-29T09:36:25.295Z,158.17
2023-03-29T09:38:55.437Z,161.50
2023-03-29T09:41:45.002Z,160.97
2023-03-29T09:44:30.248Z,166.20
2023-03-29T09:47:21.205Z,167.10
2023-03-29T09:49:55.424Z,167.03
2023-03-29T09:52:22.823Z,181.60
2023-03-29T09:55:12.428Z,163.47
2023-03-29T09:57:52.556Z,163.57
2023-03-29T10:00:20.637Z,170.67
2023-03-29T10:02:57.167Z,167.43
2023-03-29T10:05:37.166Z,169.33
2023-03-29T10:08:23.039Z,169.93
2023-03-29T10:10:51.510Z,166.10
2023-03-29T10:13:28.411Z,176.83
2023-03-29T10:16:09.197Z,172.47
2023-03-29T10:18:42.518Z,170.63
2023-03-29T10:21:17.352Z,172.03
2023-03-29T10:23:44.472Z,171.03
2023-03-29T10:26:21.352Z,176.50
2023-03-29T10:28:51.435Z,172.13
2023-03-29T10:31:20.599Z,171.07
2023-03-29T10:33:56.668Z,174.90
2023-03-29T10:36:26.850Z,172.40
2023-03-29T10:38:57.775Z,172.80
2023-03-29T10:41:27.268Z,178.53
2023-03-29T10:43:55.030Z,174.63
2023-03-29T10:46:28.758Z,174.10
2023-03-29T10:49:10.141Z,177.50
2023-03-29T10:51:37.515Z,179.27
2023-03-29T10:54:05.500Z,179.97
2023-03-29T10:56:56.072Z,175.27
2023-03-29T10:59:57.361Z,176.83
2023-03-29T11:02:46.946Z,180.83
2023-03-29T11:05:39.454Z,175.53
2023-03-29T11:08:37.660Z,188.37
2023-03-29T11:12:01.069Z,186.33
2023-03-29T11:15:24.375Z,184.13
2023-03-29T11:18:16.127Z,185.83
2023-03-29T11:20:56.344Z,199.00
2023-03-29T11:23:38.234Z,200.90
2023-03-29T11:26:14.032Z,187.90
2023-03-29T11:28:59.861Z,187.10
2023-03-29T11:31:32.676Z,191.17
2023-03-29T11:34:32.576Z,153.40
2023-03-29T11:37:26.595Z,111.90
2023-03-29T11:40:39.230Z,170.40
2023-03-29T11:43:39.107Z,15.20
2023-03-29T11:46:17.001Z,99.53
2023-03-29T11:49:10.208Z,99.40
2023-03-29T11:52:08.707Z,113.83
2023-03-29T11:54:42.414Z,158.63
2023-03-29T11:57:36.398Z,102.13
2023-03-29T12:00:20.561Z,99.63
2023-03-29T12:03:15.389Z,127.33
2023-03-29T12:05:50.004Z,106.33
2023-03-29T12:08:25.588Z,144.03
2023-03-29T12:11:25.604Z,127.77
2023-03-29T12:14:17.133Z,75.97
2023-03-29T12:17:05.742Z,90.10
2023-03-29T12:19:50.391Z,112.33
2023-03-29T12:22:17.398Z,127.43
2023-03-29T12:24:49.065Z,73.23
2023-03-29T12:27:22.844Z,129.27
2023-03-29T12:30:14.687Z,133.73
2023-03-29T12:33:03.234Z,8.83
2023-03-29T12:36:13.411Z,9.60
2023-03-29T12:38:53.399Z,6.67
2023-03-29T12:41:53.439Z,9.20
2023-03-29T12:45:00.762Z,9.10
2023-03-29T12:47:42.393Z,10.50
2023-03-29T12:50:28.277Z,10.20
2023-03-29T12:53:33.001Z,8.73
2023-03-29T12:56:03.123Z,5.43
2023-03-29T12:58:39.431Z,10.57
2023-03-29T13:01:08.045Z,5.80
2023-03-29T13:04:18.445Z,5.30
2023-03-29T13:07:03.032Z,7.82
2023-03-29T13:09:48.210Z,7.40
2023-03-29T13:12:40.922Z,6.97
2023-03-29T13:15:34.533Z,7.10
2023-03-29T13:18:23.772Z,5.83
2023-03-29T13:21:19.198Z,5.78
2023-03-29T13:24:22.245Z,4.75
2023-03-29T13:27:06.396Z,3.87
2023-03-29T13:30:06.460Z,8.75
2023-03-29T13:33:20.002Z,4.80
2023-03-29T13:36:08.978Z,4.73
2023-03-29T13:38:51.162Z,3.37
2023-03-29T13:41:38.737Z,4.30
2023-03-29T13:44:30.182Z,5.00
2023-03-29T13:47:29.337Z,4.05
2023-03-29T13:50:01.043Z,5.27
2023-03-29T13:52:34.655Z,4.22
2023-03-29T13:55:19.753Z,5.35
2023-03-29T13:58:43.848Z,3.85
2023-03-29T14:01:57.313Z,5.45
2023-03-29T14:04:46.089Z,3.35
2023-03-29T14:07:15.661Z,4.83
2023-03-29T14:09:49.734Z,4.57
2023-03-29T14:12:17.709Z,3.87
2023-03-29T14:14:58.166Z,5.07
2023-03-29T14:17:27.142Z,4.47
2023-03-29T14:19:59.206Z,3.67
2023-03-29T14:22:33.108Z,4.67
2023-03-29T14:25:11.665Z,5.22
2023-03-29T14:27:38.648Z,4.00
2023-03-29T14:30:28.456Z,4.63
2023-03-29T14:32:56.713Z,5.43
2023-03-29T14:35:33.023Z,2.87
2023-03-29T14:38:01.892Z,4.65
2023-03-29T14:40:31.508Z,4.18
2023-03-29T14:43:01.604Z,6.17
2023-03-29T14:45:29.074Z,7.30
2023-03-29T14:47:56.622Z,4.38
2023-03-29T14:50:29.625Z,7.43
2023-03-29T14:53:01.429Z,21.30
2023-03-29T14:55:28.785Z,8.87
2023-03-29T14:57:56.466Z,9.05
2023-03-29T15:00:39.949Z,10.47
2023-03-29T15:03:14.758Z,10.03
2023-03-29T15:06:03.086Z,14.43
2023-03-29T15:08:30.770Z,21.10
2023-03-29T15:10:58.799Z,14.63
2023-03-29T15:13:26.357Z,6.80
2023-03-29T15:15:59.170Z,9.15
2023-03-29T15:18:41.427Z,7.03
2023-03-29T15:21:10.673Z,15.23
2023-03-29T15:23:46.615Z,10.50
2023-03-29T15:26:24.771Z,12.37
2023-03-29T15:29:00.455Z,8.98
2023-03-29T15:31:35.628Z,14.50
2023-03-29T15:34:06.982Z,11.07
2023-03-29T15:36:42.507Z,8.30
2023-03-29T15:39:16.085Z,8.17
2023-03-29T15:41:45.921Z,12.80
2023-03-29T15:44:19.722Z,9.87
2023-03-29T15:46:46.734Z,15.03
2023-03-29T15:49:14.560Z,8.80
2023-03-29T15:51:41.766Z,7.23
2023-03-29T15:54:09.243Z,10.67
2023-03-29T15:56:48.468Z,9.60
2023-03-29T15:59:18.022Z,7.37
2023-03-29T16:01:46.997Z,9.93
2023-03-29T16:04:17.848Z,7.78
2023-03-29T16:06:52.682Z,13.07
2023-03-29T16:09:21.649Z,11.53
2023-03-29T16:11:49.643Z,8.60
2023-03-29T16:14:27.313Z,18.30
2023-03-29T16:16:55.637Z,9.73
2023-03-29T16:19:24.242Z,9.43
2023-03-29T16:21:52.915Z,7.07
2023-03-29T16:24:30.009Z,11.23
2023-03-29T16:26:57.493Z,8.18
2023-03-29T16:29:25.596Z,7.13
2023-03-29T16:31:53.546Z,6.70
2023-03-29T16:34:22.674Z,7.20
2023-03-29T16:36:50.711Z,7.87
2023-03-29T16:39:18.395Z,11.20
2023-03-29T16:41:48.366Z,11.07
2023-03-29T16:44:23.845Z,11.23
2023-03-29T16:46:53.917Z,13.20
2023-03-29T16:49:21.531Z,14.50
2023-03-29T16:51:48.649Z,15.17
2023-03-29T16:54:19.686Z,19.77
2023-03-29T16:56:46.959Z,16.50
2023-03-29T16:59:14.230Z,13.30
2023-03-29T17:01:41.606Z,17.53
2023-03-29T17:04:09.187Z,15.73
2023-03-29T17:06:36.467Z,15.83
2023-03-29T17:09:05.030Z,19.17
2023-03-29T17:11:32.629Z,17.90
2023-03-29T17:14:00.110Z,17.63
2023-03-29T17:16:28.973Z,113.60
2023-03-29T17:19:00.409Z,192.60
2023-03-29T17:21:29.170Z,182.23
2023-03-29T17:23:56.333Z,187.30
2023-03-29T17:26:23.448Z,197.60
2023-03-29T17:28:50.470Z,206.50
2023-03-29T17:31:19.342Z,225.70
2023-03-29T17:33:47.269Z,209.27
2023-03-29T17:36:14.281Z,198.47
2023-03-29T17:38:42.774Z,210.93
2023-03-29T17:41:09.965Z,197.17
2023-03-29T17:43:36.913Z,206.07
2023-03-29T17:46:04.454Z,207.53
2023-03-29T17:48:32.915Z,227.63
2023-03-29T17:51:00.270Z,205.93
2023-03-29T17:53:27.407Z,203.57
2023-03-29T17:55:54.309Z,195.00
2023-03-29T17:58:21.384Z,206.00
2023-03-29T18:00:48.594Z,199.57
2023-03-29T18:03:15.655Z,205.47
2023-03-29T18:05:42.593Z,208.87
2023-03-29T18:08:09.576Z,218.93
2023-03-29T18:10:36.867Z,208.53
2023-03-29T18:13:03.901Z,204.53
2023-03-29T18:15:30.926Z,189.47
2023-03-29T18:17:57.881Z,195.03
2023-03-29T18:20:24.843Z,195.73
2023-03-29T18:22:51.779Z,191.73
2023-03-29T18:25:20.059Z,191.67
2023-03-29T18:27:47.067Z,191.33
2023-03-29T18:30:16.666Z,190.23
2023-03-29T18:32:43.799Z,193.57
2023-03-29T18:35:11.622Z,182.37
2023-03-29T18:37:38.704Z,187.73
2023-03-29T18:40:10.221Z,187.60
2023-03-29T18:42:37.633Z,190.87
2023-03-29T18:45:05.529Z,185.27
2023-03-29T18:47:33.070Z,187.40
2023-03-29T18:50:00.326Z,182.37
2023-03-29T18:52:27.845Z,188.10
2023-03-29T18:54:54.829Z,187.67
2023-03-29T18:57:21.929Z,185.03
2023-03-29T18:59:48.943Z,182.33
2023-03-29T19:02:16.083Z,183.83
2023-03-29T19:04:43.291Z,189.30
2023-03-29T19:07:10.591Z,191.60
2023-03-29T19:09:37.607Z,178.47
2023-03-29T19:12:05.288Z,191.27
2023-03-29T19:14:32.229Z,190.57
2023-03-29T19:16:59.136Z,187.50
2023-03-29T19:19:26.438Z,193.57
2023-03-29T19:21:53.470Z,188.43
2023-03-29T19:24:20.847Z,198.37
2023-03-29T19:26:49.972Z,196.43
2023-03-29T19:29:16.993Z,195.00
2023-03-29T19:31:44.007Z,204.50
2023-03-29T19:34:11.237Z,193.10
2023-03-29T19:36:38.417Z,191.77
2023-03-29T19:39:06.014Z,197.33
2023-03-29T19:41:33.146Z,190.33
2023-03-29T19:44:00.128Z,190.40
2023-03-29T19:46:28.834Z,191.50
2023-03-29T19:48:56.241Z,190.90
2023-03-29T19:51:26.759Z,192.40
2023-03-29T19:53:55.204Z,196.00
2023-03-29T19:56:26.862Z,189.50
2023-03-29T19:58:54.043Z,189.07
2023-03-29T20:01:21.745Z,190.80
2023-03-29T20:03:49.806Z,194.60
2023-03-29T20:06:18.052Z,195.37
2023-03-29T20:08:45.752Z,192.00
2023-03-29T20:11:14.102Z,202.67
2023-03-29T20:13:43.094Z,207.43
2023-03-29T20:16:13.886Z,201.17
2023-03-29T20:18:41.302Z,197.43
2023-03-29T20:21:09.329Z,201.77
2023-03-29T20:23:36.649Z,207.07
2023-03-29T20:26:03.699Z,203.13
2023-03-29T20:28:31.449Z,198.70
2023-03-29T20:31:04.958Z,203.97
2023-03-29T20:33:33.470Z,194.90
2023-03-29T20:36:00.547Z,194.90
2023-03-29T20:38:27.689Z,194.00
2023-03-29T20:40:55.373Z,204.90
2023-03-29T20:43:22.576Z,197.67
2023-03-29T20:45:53.418Z,194.93
2023-03-29T20:48:23.439Z,192.20
2023-03-29T20:50:51.624Z,196.67
2023-03-29T20:53:20.430Z,198.47
2023-03-29T20:55:47.872Z,194.73
2023-03-29T20:58:15.755Z,195.27
2023-03-29T21:00:43.573Z,202.67
2023-03-29T21:03:10.857Z,218.20
2023-03-29T21:05:38.728Z,244.23
2023-03-29T21:08:06.090Z,249.20
2023-03-29T21:10:33.316Z,256.67
2023-03-29T21:13:00.692Z,270.83
2023-03-29T21:15:30.535Z,221.13
2023-03-29T21:17:58.130Z,228.67
2023-03-29T21:20:25.431Z,225.90
2023-03-29T21:22:52.383Z,212.67
2023-03-29T21:25:19.798Z,223.23
2023-03-29T21:27:46.890Z,224.10
2023-03-29T21:30:14.175Z,206.23
2023-03-29T21:32:41.601Z,201.70
2023-03-29T21:35:09.667Z,206.67
2023-03-29T21:37:36.692Z,213.10
2023-03-29T21:40:05.932Z,207.53
2023-03-29T21:42:36.512Z,211.30
2023-03-29T21:45:04.581Z,207.70
2023-03-29T21:47:31.626Z,205.77
2023-03-29T21:49:58.692Z,203.47
2023-03-29T21:52:26.001Z,210.63
2023-03-29T21:54:52.944Z,208.23
2023-03-29T21:57:19.944Z,211.80
2023-03-29T21:59:46.905Z,210.27
2023-03-29T22:02:13.928Z,215.27
2023-03-29T22:04:41.346Z,208.40
2023-03-29T22:07:10.618Z,209.90
2023-03-29T22:09:37.736Z,207.40
2023-03-29T22:12:05.328Z,200.83
2023-03-29T22:14:36.426Z,210.47
2023-03-29T22:17:06.969Z,206.50
2023-03-29T22:19:41.733Z,207.20
2023-03-29T22:22:13.350Z,203.23
2023-03-29T22:24:41.909Z,199.40
2023-03-29T22:27:09.292Z,202.53
2023-03-29T22:29:36.237Z,186.73
2023-03-29T22:32:03.579Z,197.13
2023-03-29T22:34:30.687Z,188.43
2023-03-29T22:36:57.660Z,193.23
2023-03-29T22:39:24.624Z,183.87
2023-03-29T22:41:51.574Z,183.53
2023-03-29T22:44:18.493Z,184.47
2023-03-29T22:46:45.566Z,185.37
2023-03-29T22:49:13.250Z,188.37
2023-03-29T22:51:40.334Z,185.00
2023-03-29T22:54:07.288Z,192.77
2023-03-29T22:56:34.237Z,210.27
2023-03-29T22:59:01.282Z,216.97
2023-03-29T23:01:28.246Z,225.73
2023-03-29T23:03:55.449Z,228.30
2023-03-29T23:06:22.407Z,184.97
2023-03-29T23:08:49.316Z,196.70
2023-03-29T23:11:16.317Z,191.60
2023-03-29T23:13:43.360Z,187.40
2023-03-29T23:16:10.509Z,188.13
2023-03-29T23:18:37.955Z,186.83
2023-03-29T23:21:06.126Z,184.97
2023-03-29T23:23:33.687Z,188.63
2023-03-29T23:26:01.949Z,186.43
2023-03-29T23:28:30.694Z,188.10
2023-03-29T23:31:03.280Z,192.97
2023-03-29T23:33:35.318Z,182.27
2023-03-29T23:36:06.196Z,191.00
2023-03-29T23:38:36.111Z,182.73
2023-03-29T23:41:06.757Z,188.77
2023-03-29T23:43:37.178Z,187.63
2023-03-29T23:46:07.910Z,191.77
2023-03-29T23:48:34.989Z,198.50
2023-03-29T23:51:03.278Z,196.10
2023-03-29T23:53:31.500Z,192.70
2023-03-29T23:56:01.264Z,189.80
2023-03-29T23:58:30.854Z,194.57
